Time;durP1;ratioP1;P1;durP2;ratioP2;P2;SDS_P1;SDS_P2;PMS_P1;PMS_P2;Temp;Humidity;BMP_temperature;BMP_pressure;BME280_temperature;BME280_humidity;BME280_pressure;Samples;Min_cycle;Max_cycle;Signal;HPM_P1;HPM_P2
2021/05/04 00:01:57;;;;;;;2.92;1.62;;;12.50;61.00;;;;;;2357843;53;21010;-69
2021/05/04 00:04:23;;;;;;;3.08;1.90;;;12.60;61.40;;;;;;2343254;54;21686;-66
2021/05/04 00:06:51;;;;;;;3.12;1.87;;;12.60;60.80;;;;;;2370162;53;20926;-67
2021/05/04 00:09:18;;;;;;;4.55;2.37;;;12.60;60.70;;;;;;2371271;53;21008;-67
2021/05/04 00:11:44;;;;;;;4.12;2.08;;;12.70;60.60;;;;;;2349541;53;21014;-65
2021/05/04 00:14:11;;;;;;;3.75;1.80;;;12.70;60.50;;;;;;2599964;52;20987;-68
2021/05/04 00:16:42;;;;;;;3.20;1.77;;;12.80;59.70;;;;;;2343422;54;21544;-66
2021/05/04 00:19:10;;;;;;;3.30;1.83;;;12.80;59.70;;;;;;2369494;53;20926;-65
2021/05/04 00:21:38;;;;;;;3.62;1.83;;;12.90;60.20;;;;;;2369586;53;21178;-66
2021/05/04 00:24:05;;;;;;;3.55;2.05;;;12.90;59.80;;;;;;2368356;53;21043;-68
2021/05/04 00:26:35;;;;;;;3.58;2.10;;;13.00;59.80;;;;;;2353170;53;20913;-67
2021/05/04 00:29:01;;;;;;;3.22;1.80;;;13.10;59.70;;;;;;2350531;54;20946;-67
2021/05/04 00:31:27;;;;;;;3.17;1.90;;;13.10;59.70;;;;;;2366932;53;20924;-66
2021/05/04 00:33:54;;;;;;;3.40;2.08;;;13.20;59.40;;;;;;2358959;53;20915;-68
2021/05/04 00:36:22;;;;;;;4.05;2.03;;;13.20;59.30;;;;;;2355801;53;21372;-66
2021/05/04 00:38:49;;;;;;;4.03;2.12;;;13.30;59.30;;;;;;2365370;53;20961;-68
2021/05/04 00:41:15;;;;;;;4.00;2.37;;;13.30;59.10;;;;;;2360488;53;21064;-66
2021/05/04 00:43:42;;;;;;;3.78;1.77;;;13.40;58.50;;;;;;2359943;53;21554;-65
2021/05/04 00:46:09;;;;;;;4.37;2.20;;;13.40;58.60;;;;;;2369886;53;20934;-66
2021/05/04 00:48:36;;;;;;;4.28;2.50;;;13.40;58.30;;;;;;2366797;53;20958;-67
2021/05/04 00:51:19;;;;;;;3.78;2.25;;;13.50;58.20;;;;;;2594128;52;21000;-66
2021/05/04 00:53:45;;;;;;;3.40;1.83;;;13.60;57.40;;;;;;2369777;53;20938;-67
2021/05/04 00:56:11;;;;;;;3.37;1.90;;;13.60;58.30;;;;;;2370481;53;20965;-66
2021/05/04 00:58:38;;;;;;;3.35;2.10;;;13.60;58.30;;;;;;2355765;53;21707;-69
2021/05/04 01:01:04;;;;;;;3.20;1.70;;;13.70;57.30;;;;;;2359642;53;21348;-66
2021/05/04 01:03:31;;;;;;;3.67;2.10;;;13.70;57.60;;;;;;2346474;53;20992;-66
2021/05/04 01:05:57;;;;;;;5.03;2.20;;;13.70;57.70;;;;;;2349281;53;20990;-69
2021/05/04 01:08:23;;;;;;;3.90;1.95;;;13.80;56.90;;;;;;2389169;52;20946;-69
2021/05/04 01:10:50;;;;;;;3.97;2.33;;;13.80;57.40;;;;;;2369783;53;20997;-69
2021/05/04 01:13:17;;;;;;;4.25;2.15;;;13.90;56.50;;;;;;2354885;53;20931;-66
2021/05/04 01:15:43;;;;;;;8.50;2.30;;;13.90;56.20;;;;;;2361825;53;20942;-68
2021/05/04 01:18:13;;;;;;;3.45;1.95;;;13.90;54.90;;;;;;2363989;53;20914;-65
2021/05/04 01:20:39;;;;;;;3.15;1.87;;;14.00;54.80;;;;;;2370168;53;20990;-67
2021/05/04 01:23:08;;;;;;;3.55;1.90;;;14.00;55.20;;;;;;2362753;53;22075;-67
2021/05/04 01:25:34;;;;;;;3.42;1.80;;;14.00;55.60;;;;;;2339217;53;20950;-67
2021/05/04 01:28:01;;;;;;;3.65;1.92;;;14.00;55.60;;;;;;2343264;53;21835;-68
2021/05/04 01:30:36;;;;;;;3.45;1.90;;;14.10;55.40;;;;;;2386346;52;21052;-67
2021/05/04 01:33:04;;;;;;;4.05;1.90;;;14.10;55.00;;;;;;2351806;53;20943;-67
2021/05/04 01:35:30;;;;;;;2.87;1.80;;;14.10;55.90;;;;;;2338591;53;20988;-65
2021/05/04 01:37:57;;;;;;;3.60;1.83;;;14.20;55.50;;;;;;2349086;53;20976;-66
2021/05/04 01:40:24;;;;;;;4.07;1.90;;;14.20;55.70;;;;;;2364460;53;20974;-67
2021/05/04 01:42:50;;;;;;;3.72;2.20;;;14.20;55.20;;;;;;2366205;53;21443;-67
2021/05/04 01:45:16;;;;;;;3.87;2.05;;;14.30;54.60;;;;;;2348449;53;21022;-68
2021/05/04 01:47:43;;;;;;;3.47;1.83;;;14.30;54.60;;;;;;2370047;53;20930;-66
2021/05/04 01:50:10;;;;;;;3.58;2.03;;;14.30;54.60;;;;;;2370581;53;21577;-69
2021/05/04 01:52:36;;;;;;;3.62;2.22;;;14.40;53.30;;;;;;2350330;54;21320;-67
2021/05/04 01:55:03;;;;;;;4.22;2.00;;;14.40;53.00;;;;;;2345016;53;20938;-68
2021/05/04 01:57:29;;;;;;;3.90;1.75;;;14.40;53.90;;;;;;2561916;52;20993;-67
2021/05/04 01:59:55;;;;;;;3.62;1.90;;;14.40;54.20;;;;;;2362774;53;21035;-67
2021/05/04 02:02:22;;;;;;;4.43;2.03;;;14.50;53.40;;;;;;2354156;54;20927;-67
2021/05/04 02:04:48;;;;;;;4.57;1.95;;;14.50;52.50;;;;;;2366655;53;20954;-67
2021/05/04 02:07:20;;;;;;;3.00;1.40;;;14.50;52.60;;;;;;2360785;53;20934;-68
2021/05/04 02:09:46;;;;;;;3.60;2.08;;;14.60;53.10;;;;;;2366866;53;20950;-65
2021/05/04 02:12:13;;;;;;;2.95;1.52;;;14.60;53.40;;;;;;2622957;52;20970;-67
2021/05/04 02:14:39;;;;;;;3.72;1.70;;;14.60;53.40;;;;;;2370298;53;20938;-68
2021/05/04 02:17:05;;;;;;;4.82;1.83;;;14.60;53.50;;;;;;2410733;52;20942;-67
2021/05/04 02:19:32;;;;;;;3.37;1.70;;;14.60;52.10;;;;;;2370170;53;21723;-69
2021/05/04 02:21:59;;;;;;;3.22;1.90;;;14.60;52.50;;;;;;2372779;53;21970;-69
2021/05/04 02:24:25;;;;;;;3.08;1.87;;;14.60;52.20;;;;;;2360404;53;20923;-67
2021/05/04 02:26:51;;;;;;;3.67;1.80;;;14.60;52.70;;;;;;2368402;53;21001;-66
2021/05/04 02:29:17;;;;;;;3.15;1.65;;;14.60;52.70;;;;;;2369586;53;21002;-65
2021/05/04 02:31:43;;;;;;;3.42;1.95;;;14.60;52.90;;;;;;2375684;52;20991;-66
2021/05/04 02:34:09;;;;;;;3.28;1.70;;;14.60;52.80;;;;;;2362032;53;21744;-68
2021/05/04 02:36:36;;;;;;;3.95;2.00;;;14.60;53.40;;;;;;2366251;53;20930;-68
2021/05/04 02:39:03;;;;;;;3.47;1.70;;;14.60;52.10;;;;;;2370059;53;21005;-68
2021/05/04 02:41:30;;;;;;;3.25;1.75;;;14.70;52.10;;;;;;2350120;53;20970;-65
2021/05/04 02:43:56;;;;;;;3.78;1.80;;;14.70;52.00;;;;;;2372666;53;21446;-68
2021/05/04 02:46:22;;;;;;;5.40;1.77;;;14.70;51.50;;;;;;2346040;53;20969;-67
2021/05/04 02:48:48;;;;;;;3.08;1.87;;;14.70;51.20;;;;;;2362822;53;20944;-66
2021/05/04 02:51:15;;;;;;;4.55;2.15;;;14.80;52.10;;;;;;2580037;53;21023;-66
2021/05/04 02:53:41;;;;;;;3.60;2.00;;;14.80;51.90;;;;;;2365002;53;21435;-68
2021/05/04 02:56:07;;;;;;;3.12;1.87;;;14.80;50.60;;;;;;2339682;53;21508;-68
2021/05/04 02:58:35;;;;;;;3.85;1.98;;;14.80;51.40;;;;;;2579071;53;21485;-66
2021/05/04 03:01:14;;;;;;;3.67;1.83;;;14.80;51.40;;;;;;2346686;53;20998;-66
2021/05/04 03:03:40;;;;;;;3.45;2.12;;;14.90;50.40;;;;;;2363180;53;21561;-67
2021/05/04 03:06:56;;;;;;;3.53;2.05;;;14.90;49.60;;;;;;2363080;53;20946;-66
2021/05/04 03:09:23;;;;;;;4.43;1.95;;;14.90;49.50;;;;;;2363316;53;21039;-66
2021/05/04 03:11:55;;;;;;;3.20;2.03;;;14.90;51.10;;;;;;2369272;53;20954;-66
2021/05/04 03:14:24;;;;;;;3.67;2.20;;;14.90;49.60;;;;;;2370336;53;21067;-66
2021/05/04 03:16:51;;;;;;;3.40;2.03;;;14.90;50.00;;;;;;2352926;53;20942;-68
2021/05/04 03:19:17;;;;;;;4.82;2.22;;;14.90;50.30;;;;;;2350156;52;20944;-66
2021/05/04 03:25:23;;;;;;;3.53;2.03;;;15.00;49.30;;;;;;2616423;52;20983;-66
2021/05/04 03:27:57;;;;;;;3.33;1.90;;;15.00;50.80;;;;;;2353190;54;20993;-67
2021/05/04 03:30:24;;;;;;;4.43;2.28;;;15.00;50.90;;;;;;2370441;53;21006;-66
2021/05/04 03:32:51;;;;;;;4.03;2.12;;;15.10;50.70;;;;;;2369868;53;21029;-67
2021/05/04 03:35:18;;;;;;;3.45;2.08;;;15.10;50.50;;;;;;2350313;54;21001;-67
2021/05/04 03:38:27;;;;;;;4.95;2.17;;;15.10;50.40;;;;;;2369969;53;20934;-65
2021/05/04 03:40:53;;;;;;;4.65;2.20;;;15.10;49.60;;;;;;2414650;52;20973;-67
2021/05/04 03:43:20;;;;;;;4.22;2.20;;;15.20;49.50;;;;;;2368878;53;20922;-65
2021/05/04 03:45:46;;;;;;;4.18;2.03;;;15.10;49.20;;;;;;2370095;53;21616;-67
2021/05/04 03:48:12;;;;;;;2.87;1.75;;;15.20;49.30;;;;;;2463541;52;20940;-65
2021/05/04 03:50:38;;;;;;;4.28;2.22;;;15.20;49.10;;;;;;2350015;54;21740;-66
2021/05/04 03:53:08;;;;;;;3.25;1.75;;;15.20;49.90;;;;;;2350323;53;20999;-67
2021/05/04 03:55:34;;;;;;;4.20;2.25;;;15.20;49.90;;;;;;2351329;53;21468;-66
2021/05/04 03:58:00;;;;;;;3.55;1.83;;;15.20;49.90;;;;;;2508509;52;20998;-65
2021/05/04 04:00:27;;;;;;;3.87;2.20;;;15.30;50.10;;;;;;2462855;52;20993;-66
2021/05/04 04:02:56;;;;;;;4.22;2.20;;;15.30;49.20;;;;;;2457548;52;21013;-65
2021/05/04 04:05:23;;;;;;;3.53;1.52;;;15.30;50.00;;;;;;2348187;53;20934;-65
2021/05/04 04:08:01;;;;;;;3.47;2.10;;;15.30;50.50;;;;;;2350692;53;20993;-67
2021/05/04 04:10:28;;;;;;;4.50;2.05;;;15.30;49.10;;;;;;2369261;53;21092;-68
2021/05/04 04:12:54;;;;;;;3.37;2.00;;;15.30;49.20;;;;;;2380632;52;20950;-67
2021/05/04 04:15:20;;;;;;;3.67;1.90;;;15.30;49.10;;;;;;2363190;53;20995;-68
2021/05/04 04:17:47;;;;;;;3.08;1.70;;;15.40;49.30;;;;;;2356892;53;21033;-69
2021/05/04 04:20:13;;;;;;;3.85;2.00;;;15.40;49.60;;;;;;2349327;53;20995;-67
2021/05/04 04:22:39;;;;;;;4.87;1.60;;;15.40;50.00;;;;;;2370050;53;20946;-66
2021/05/04 04:25:17;;;;;;;3.45;2.00;;;15.50;50.30;;;;;;2367518;53;21726;-68
2021/05/04 04:27:44;;;;;;;3.83;1.87;;;15.50;49.70;;;;;;2369205;53;20945;-69
2021/05/04 04:30:28;;;;;;;3.40;2.00;;;15.50;50.70;;;;;;2454847;52;21435;-66
2021/05/04 04:32:55;;;;;;;4.03;1.92;;;15.50;49.10;;;;;;2349610;53;21003;-66
2021/05/04 04:35:21;;;;;;;2.70;1.60;;;15.50;50.30;;;;;;2357265;53;21003;-68
2021/05/04 04:37:47;;;;;;;4.18;1.95;;;15.50;50.30;;;;;;2362553;53;21384;-65
2021/05/04 04:40:13;;;;;;;4.47;2.30;;;15.50;50.70;;;;;;2344468;53;21003;-67
2021/05/04 04:42:40;;;;;;;3.85;2.15;;;15.50;49.10;;;;;;2597901;52;20993;-67
2021/05/04 04:45:06;;;;;;;5.28;1.83;;;15.50;49.20;;;;;;2368246;53;21013;-66
2021/05/04 04:47:33;;;;;;;3.50;2.00;;;15.50;48.80;;;;;;2355993;53;21003;-66
2021/05/04 04:49:59;;;;;;;3.47;1.83;;;15.50;49.20;;;;;;2363116;53;20973;-66
2021/05/04 04:52:25;;;;;;;3.78;2.22;;;15.50;49.30;;;;;;2333184;55;20974;-67
2021/05/04 04:54:52;;;;;;;3.50;1.90;;;15.50;48.50;;;;;;2370045;53;20954;-65
2021/05/04 04:57:19;;;;;;;3.45;2.15;;;15.50;49.10;;;;;;2369795;53;20954;-67
2021/05/04 04:59:46;;;;;;;4.28;2.20;;;15.50;47.00;;;;;;2358539;53;20955;-66
2021/05/04 05:02:12;;;;;;;3.80;2.00;;;15.50;47.20;;;;;;2354124;53;21259;-65
2021/05/04 05:04:38;;;;;;;3.10;1.70;;;15.50;48.00;;;;;;2371616;53;20973;-67
2021/05/04 05:07:10;;;;;;;2.95;1.62;;;15.50;48.20;;;;;;2332595;54;20923;-67
2021/05/04 05:09:37;;;;;;;5.50;2.12;;;15.50;48.00;;;;;;2353667;53;20987;-66
2021/05/04 05:12:04;;;;;;;4.40;1.92;;;15.50;47.60;;;;;;2335165;54;20987;-67
2021/05/04 05:14:34;;;;;;;3.40;1.52;;;15.50;46.90;;;;;;2351766;53;20959;-65
2021/05/04 05:17:03;;;;;;;3.85;1.80;;;15.50;47.70;;;;;;2358418;53;21652;-68
2021/05/04 05:19:30;;;;;;;5.40;1.70;;;15.50;47.70;;;;;;2319566;55;21542;-67
2021/05/04 05:21:57;;;;;;;2.90;1.60;;;15.50;47.20;;;;;;2332534;54;21779;-66
2021/05/04 05:24:23;;;;;;;5.05;1.85;;;15.50;46.50;;;;;;2316465;54;22325;-68
2021/05/04 05:27:13;;;;;;;3.42;1.83;;;15.50;47.20;;;;;;2341689;53;21004;-64
2021/05/04 05:29:40;;;;;;;3.30;1.87;;;15.60;47.40;;;;;;2334528;54;21241;-66
2021/05/04 05:32:06;;;;;;;3.45;1.60;;;15.60;46.90;;;;;;2553518;53;20974;-66
2021/05/04 05:34:32;;;;;;;5.12;1.90;;;15.60;48.00;;;;;;2336229;54;20977;-67
2021/05/04 05:36:59;;;;;;;3.40;1.80;;;15.60;48.10;;;;;;2347630;53;20952;-67
2021/05/04 05:39:25;;;;;;;3.78;2.10;;;15.70;48.20;;;;;;2327764;54;20958;-64
2021/05/04 05:41:52;;;;;;;3.40;1.85;;;15.70;47.20;;;;;;2331952;54;20998;-67
2021/05/04 05:44:19;;;;;;;3.87;1.90;;;15.70;47.70;;;;;;2341739;53;21373;-66
2021/05/04 05:46:45;;;;;;;3.25;1.85;;;15.70;48.10;;;;;;2586307;53;20912;-67
2021/05/04 05:49:11;;;;;;;3.87;1.58;;;15.70;47.30;;;;;;2318395;54;20973;-65
2021/05/04 05:51:40;;;;;;;3.08;1.73;;;15.70;48.40;;;;;;2340064;53;20976;-66
2021/05/04 05:54:06;;;;;;;3.20;1.60;;;15.70;47.80;;;;;;2317285;54;20991;-66
2021/05/04 05:56:35;;;;;;;4.12;1.83;;;15.80;48.30;;;;;;2440574;53;20918;-66
2021/05/04 05:59:02;;;;;;;5.43;1.80;;;15.80;46.60;;;;;;2450950;52;20940;-68
2021/05/04 06:01:28;;;;;;;4.32;2.05;;;15.80;47.50;;;;;;2367158;53;22037;-66
2021/05/04 06:03:54;;;;;;;3.30;1.87;;;15.80;47.70;;;;;;2364023;53;21473;-65
2021/05/04 06:06:21;;;;;;;3.35;1.85;;;15.80;48.20;;;;;;2365576;53;20926;-67
2021/05/04 06:09:18;;;;;;;6.18;1.87;;;15.90;48.50;;;;;;2362794;53;20998;-67
2021/05/04 06:11:59;;;;;;;3.50;1.67;;;15.90;47.80;;;;;;2364166;53;20962;-68
2021/05/04 06:14:25;;;;;;;5.03;1.95;;;16.00;48.70;;;;;;2366320;53;20950;-67
2021/05/04 06:16:53;;;;;;;3.22;2.00;;;16.00;49.40;;;;;;2341951;53;20945;-68
2021/05/04 06:19:19;;;;;;;3.35;1.80;;;16.00;48.20;;;;;;2345098;53;20930;-65
2021/05/04 06:21:46;;;;;;;3.05;1.65;;;16.00;48.90;;;;;;2586965;52;21487;-67
2021/05/04 06:24:15;;;;;;;3.08;1.52;;;16.00;49.40;;;;;;2360302;53;21979;-66
2021/05/04 06:26:44;;;;;;;4.00;1.77;;;16.10;48.80;;;;;;2525865;52;20950;-67
2021/05/04 06:29:10;;;;;;;3.42;1.70;;;16.10;48.30;;;;;;2363366;53;21629;-65
2021/05/04 06:31:36;;;;;;;4.85;2.08;;;16.10;48.80;;;;;;2362720;53;20951;-66
2021/05/04 06:34:05;;;;;;;5.60;1.98;;;16.10;48.60;;;;;;2590375;52;21554;-67
2021/05/04 06:36:32;;;;;;;2.62;1.55;;;16.10;47.70;;;;;;2328870;54;20941;-65
2021/05/04 06:39:07;;;;;;;5.00;2.05;;;16.20;48.90;;;;;;2346470;53;20976;-65
2021/05/04 06:41:36;;;;;;;3.72;2.15;;;16.20;48.20;;;;;;2591148;52;21016;-67
2021/05/04 06:44:03;;;;;;;3.37;1.75;;;16.20;48.70;;;;;;2369589;53;20946;-65
2021/05/04 06:46:30;;;;;;;4.50;2.00;;;16.20;48.80;;;;;;2360732;53;21000;-66
2021/05/04 06:48:57;;;;;;;3.08;1.62;;;16.30;49.30;;;;;;2352732;53;20962;-67
2021/05/04 06:51:23;;;;;;;4.30;2.10;;;16.30;48.80;;;;;;2377519;52;21475;-67
2021/05/04 06:53:50;;;;;;;3.62;2.10;;;16.30;47.50;;;;;;2358195;53;20972;-66
2021/05/04 06:56:19;;;;;;;3.55;2.10;;;16.30;47.80;;;;;;2332210;54;21062;-65
2021/05/04 06:58:47;;;;;;;3.90;1.90;;;16.40;47.70;;;;;;2350351;53;21043;-67
2021/05/04 07:01:15;;;;;;;3.00;1.70;;;16.40;48.50;;;;;;2596770;52;20926;-65
2021/05/04 07:03:42;;;;;;;3.37;1.50;;;16.40;47.10;;;;;;2364835;53;21001;-65
2021/05/04 07:06:08;;;;;;;4.37;2.17;;;16.40;48.50;;;;;;2369502;53;21770;-67
2021/05/04 07:08:35;;;;;;;3.72;2.03;;;16.40;48.00;;;;;;2368802;53;20929;-67
2021/05/04 07:11:28;;;;;;;3.75;2.05;;;16.40;48.10;;;;;;2368799;53;20922;-67
2021/05/04 07:13:54;;;;;;;5.50;2.00;;;16.40;46.80;;;;;;2348726;53;20968;-65
2021/05/04 07:16:20;;;;;;;2.62;1.37;;;16.50;48.70;;;;;;2594035;52;21104;-66
2021/05/04 07:18:46;;;;;;;3.53;1.73;;;16.50;48.20;;;;;;2368915;53;20950;-66
2021/05/04 07:21:13;;;;;;;3.37;1.80;;;16.50;48.80;;;;;;2369351;53;21005;-67
2021/05/04 07:23:41;;;;;;;2.95;1.60;;;16.50;47.60;;;;;;2364131;53;20959;-66
2021/05/04 07:26:07;;;;;;;3.78;1.83;;;16.50;47.90;;;;;;2365185;53;21899;-66
2021/05/04 07:28:33;;;;;;;3.83;1.92;;;16.50;47.80;;;;;;2351012;53;20953;-66
2021/05/04 07:31:00;;;;;;;4.82;2.12;;;16.50;48.50;;;;;;2578973;52;20976;-65
2021/05/04 07:33:26;;;;;;;4.70;2.05;;;16.50;47.20;;;;;;2352439;53;21289;-66
2021/05/04 07:35:53;;;;;;;2.80;1.50;;;16.50;46.80;;;;;;2593285;52;20942;-66
2021/05/04 07:38:19;;;;;;;2.95;1.80;;;16.50;47.90;;;;;;2366966;53;21379;-67
2021/05/04 07:40:45;;;;;;;4.03;1.80;;;16.50;45.80;;;;;;2365791;53;20949;-67
2021/05/04 07:43:12;;;;;;;3.25;1.60;;;16.50;46.90;;;;;;2339872;53;21398;-66
2021/05/04 07:45:38;;;;;;;3.55;1.87;;;16.50;47.70;;;;;;2360825;53;21984;-65
2021/05/04 07:51:04;;;;;;;3.42;1.70;;;16.60;47.40;;;;;;2369823;53;20990;-67
2021/05/04 07:53:30;;;;;;;6.45;1.58;;;16.60;48.40;;;;;;2346771;54;20993;-66
2021/05/04 07:56:24;;;;;;;3.58;2.17;;;16.60;48.30;;;;;;2350178;53;20938;-64
2021/05/04 07:58:50;;;;;;;3.53;1.92;;;16.70;46.20;;;;;;2363373;53;20926;-66
2021/05/04 08:01:17;;;;;;;3.10;1.60;;;16.70;47.20;;;;;;2350492;53;21019;-65
2021/05/04 08:04:01;;;;;;;3.12;1.90;;;16.70;47.80;;;;;;2360692;55;20977;-67
2021/05/04 08:06:27;;;;;;;8.13;1.87;;;16.70;45.80;;;;;;2349994;53;20926;-65
2021/05/04 08:08:56;;;;;;;2.97;1.42;;;16.80;47.10;;;;;;2616949;52;21063;-66
2021/05/04 08:11:22;;;;;;;3.25;1.50;;;16.80;47.50;;;;;;2363735;53;21046;-67
2021/05/04 08:14:08;;;;;;;3.03;1.42;;;16.80;46.20;;;;;;2355668;53;21435;-67
2021/05/04 08:16:35;;;;;;;3.58;1.42;;;16.90;47.00;;;;;;2365251;53;20977;-68
2021/05/04 08:19:04;;;;;;;4.35;1.98;;;16.90;47.80;;;;;;2345455;53;21747;-68
2021/05/04 08:21:34;;;;;;;2.60;1.40;;;17.00;46.30;;;;;;2366498;53;21010;-67
2021/05/04 08:24:12;;;;;;;2.92;1.50;;;17.10;47.10;;;;;;2581039;52;20967;-68
2021/05/04 08:26:39;;;;;;;3.80;2.00;;;17.10;46.70;;;;;;2345782;53;20932;-67
2021/05/04 08:29:05;;;;;;;2.83;1.52;;;17.20;45.40;;;;;;2615582;52;20950;-68
2021/05/04 08:31:32;;;;;;;4.12;1.80;;;17.20;47.10;;;;;;2341048;53;21400;-68
2021/05/04 08:33:58;;;;;;;3.50;1.60;;;17.30;46.40;;;;;;2352550;53;21332;-66
2021/05/04 08:37:17;;;;;;;3.58;1.50;;;17.30;46.40;;;;;;2578440;52;20944;-66
2021/05/04 08:39:43;;;;;;;3.45;1.65;;;17.40;46.60;;;;;;2370138;53;21858;-67
2021/05/04 08:42:10;;;;;;;2.87;1.37;;;17.40;47.30;;;;;;2509883;52;20981;-66
2021/05/04 08:44:36;;;;;;;5.07;1.73;;;17.50;48.00;;;;;;2369496;53;21659;-67
2021/05/04 08:47:02;;;;;;;3.35;1.50;;;17.50;46.70;;;;;;2316173;54;21763;-66
2021/05/04 08:49:29;;;;;;;4.72;1.65;;;17.60;48.20;;;;;;2341091;54;20949;-68
2021/05/04 08:51:56;;;;;;;3.03;1.67;;;17.60;48.00;;;;;;2341621;53;21378;-68
2021/05/04 08:54:22;;;;;;;4.55;2.03;;;17.70;47.10;;;;;;2337783;53;21009;-68
2021/05/04 08:59:52;;;;;;;3.22;1.80;;;17.80;47.10;;;;;;2587902;52;21406;-67
2021/05/04 09:02:22;;;;;;;3.03;1.70;;;17.90;46.40;;;;;;2336886;53;21395;-66
2021/05/04 09:04:55;;;;;;;3.83;1.40;;;18.00;47.00;;;;;;2359836;53;20959;-66
2021/05/04 09:07:54;;;;;;;2.75;1.45;;;18.00;47.40;;;;;;2601371;52;20934;-66
2021/05/04 09:10:31;;;;;;;2.83;1.48;;;18.00;45.50;;;;;;2361026;53;20942;-68
2021/05/04 09:13:02;;;;;;;9.52;1.92;;;18.10;47.50;;;;;;2366504;53;21499;-65
2021/05/04 09:16:05;;;;;;;3.58;1.80;;;18.10;45.10;;;;;;2364829;53;21005;-67
2021/05/04 09:24:58;;;;;;;3.25;1.52;;;18.20;45.00;;;;;;2491430;52;21751;-68
2021/05/04 09:27:24;;;;;;;3.70;1.90;;;18.30;45.70;;;;;;2365486;53;21650;-67
2021/05/04 09:29:53;;;;;;;4.43;1.62;;;18.40;45.80;;;;;;2351375;53;21046;-68
2021/05/04 09:32:29;;;;;;;2.58;1.40;;;18.40;43.90;;;;;;2369186;53;21756;-66
2021/05/04 09:34:59;;;;;;;3.22;1.80;;;18.40;45.00;;;;;;2366506;53;21860;-67
2021/05/04 09:37:33;;;;;;;3.78;1.80;;;18.50;44.60;;;;;;2350963;53;20952;-66
2021/05/04 09:40:25;;;;;;;4.00;1.70;;;18.50;46.00;;;;;;2368318;53;20954;-68
2021/05/04 09:43:18;;;;;;;7.40;1.80;;;18.60;45.00;;;;;;2352406;53;21015;-66
2021/05/04 09:46:12;;;;;;;4.72;2.55;;;18.60;45.30;;;;;;2368136;53;20957;-68
2021/05/04 09:48:38;;;;;;;3.97;2.30;;;18.70;44.80;;;;;;2349623;53;21531;-67
2021/05/04 09:51:20;;;;;;;3.67;2.03;;;18.70;45.90;;;;;;2358603;53;20974;-66
2021/05/04 09:59:55;;;;;;;2.65;1.58;;;18.80;45.80;;;;;;2624106;52;21506;-66
2021/05/04 10:02:24;;;;;;;4.15;1.50;;;18.80;46.00;;;;;;2371150;53;20986;-68
2021/05/04 10:04:54;;;;;;;3.12;1.50;;;18.90;46.80;;;;;;2365786;53;21118;-65
2021/05/04 10:07:22;;;;;;;2.45;1.33;;;18.90;46.80;;;;;;2595500;52;20927;-68
2021/05/04 10:09:49;;;;;;;2.72;1.40;;;18.90;46.90;;;;;;2363296;53;20945;-68
2021/05/04 10:12:18;;;;;;;2.70;1.20;;;18.90;47.50;;;;;;2596164;52;21528;-67
2021/05/04 10:14:44;;;;;;;2.72;1.17;;;19.00;47.40;;;;;;2346995;53;20995;-68
2021/05/04 10:17:10;;;;;;;2.30;1.12;;;19.00;47.20;;;;;;2371140;53;20998;-65
2021/05/04 10:19:37;;;;;;;3.05;1.37;;;19.00;47.80;;;;;;2348977;53;20915;-65
2021/05/04 10:22:10;;;;;;;3.80;1.40;;;19.10;47.30;;;;;;2370141;53;20975;-66
2021/05/04 10:24:40;;;;;;;2.67;1.30;;;19.10;47.40;;;;;;2351101;53;21854;-67
2021/05/04 10:27:07;;;;;;;4.03;1.60;;;19.10;48.10;;;;;;2371402;53;20949;-65
2021/05/04 10:29:34;;;;;;;3.67;1.10;;;19.20;46.70;;;;;;2600693;52;20940;-67
2021/05/04 10:32:00;;;;;;;4.07;1.20;;;19.20;47.50;;;;;;2351734;53;20929;-65
2021/05/04 10:34:33;;;;;;;2.62;1.23;;;19.20;48.10;;;;;;2366063;53;20998;-67
2021/05/04 10:37:04;;;;;;;4.28;1.50;;;19.20;47.30;;;;;;2372184;54;21001;-66
2021/05/04 10:39:46;;;;;;;2.58;1.23;;;19.30;47.80;;;;;;2371981;53;20997;-68
2021/05/04 10:42:14;;;;;;;2.78;1.20;;;19.30;47.00;;;;;;2334583;54;20942;-67
2021/05/04 10:46:31;;;;;;;2.83;1.30;;;19.30;48.30;;;;;;2367695;53;21042;-66
2021/05/04 10:48:58;;;;;;;2.30;0.93;;;19.30;46.90;;;;;;2365876;53;21565;-66
2021/05/04 10:51:51;;;;;;;3.25;1.10;;;19.30;49.10;;;;;;2357101;53;21070;-66
2021/05/04 10:54:21;;;;;;;5.07;1.60;;;19.40;48.40;;;;;;2372100;53;21910;-68
2021/05/04 10:56:57;;;;;;;3.03;1.30;;;19.40;48.20;;;;;;2334353;54;20963;-68
2021/05/04 10:59:57;;;;;;;2.05;0.90;;;19.40;48.90;;;;;;2360367;53;21115;-69
2021/05/04 11:02:26;;;;;;;3.53;0.90;;;19.50;48.00;;;;;;2363188;53;20967;-68
2021/05/04 11:04:55;;;;;;;2.85;1.10;;;19.50;49.90;;;;;;2356219;53;21022;-66
2021/05/04 11:07:52;;;;;;;5.55;1.15;;;19.50;49.90;;;;;;2358208;53;21306;-67
2021/05/04 11:10:20;;;;;;;2.17;1.00;;;19.60;47.90;;;;;;2350415;53;20972;-66
2021/05/04 11:12:49;;;;;;;3.95;1.10;;;19.50;47.70;;;;;;2354085;54;20985;-67
2021/05/04 11:15:23;;;;;;;2.33;0.93;;;19.50;47.40;;;;;;2351283;53;20993;-68
2021/05/04 11:17:49;;;;;;;2.47;1.00;;;19.50;47.60;;;;;;2624717;52;20954;-66
2021/05/04 11:20:37;;;;;;;2.30;1.00;;;19.50;48.50;;;;;;2353663;53;20999;-67
2021/05/04 11:23:06;;;;;;;2.95;1.20;;;19.50;47.10;;;;;;2372487;53;20973;-67
2021/05/04 11:25:38;;;;;;;2.75;1.12;;;19.50;48.70;;;;;;2349067;54;21243;-68
2021/05/04 11:28:04;;;;;;;3.90;1.12;;;19.40;47.90;;;;;;2334462;54;21273;-69
2021/05/04 11:30:42;;;;;;;3.03;1.30;;;19.40;48.80;;;;;;2364015;53;20960;-68
2021/05/04 11:33:31;;;;;;;3.03;1.08;;;19.30;47.60;;;;;;2357406;53;20930;-67
2021/05/04 11:39:25;;;;;;;2.67;0.90;;;19.30;46.20;;;;;;2392396;52;20986;-68
2021/05/04 11:42:00;;;;;;;3.37;0.80;;;19.10;48.00;;;;;;2344755;54;21018;-68
2021/05/04 11:44:33;;;;;;;2.70;1.12;;;19.00;48.20;;;;;;2355490;53;21033;-66
2021/05/04 11:47:26;;;;;;;2.80;1.25;;;19.00;47.80;;;;;;2371898;53;20942;-67
2021/05/04 11:50:04;;;;;;;2.37;1.10;;;18.90;46.90;;;;;;2595409;52;21018;-68
2021/05/04 11:52:33;;;;;;;1.92;1.00;;;18.90;48.30;;;;;;2362511;53;21424;-66
2021/05/04 11:55:08;;;;;;;4.80;1.20;;;18.80;48.80;;;;;;2347287;53;20966;-67
2021/05/04 11:57:34;;;;;;;2.65;1.40;;;18.80;48.40;;;;;;2366464;53;21364;-67
2021/05/04 12:00:01;;;;;;;3.45;1.02;;;18.70;48.80;;;;;;2366772;53;21504;-70
2021/05/04 12:02:31;;;;;;;3.83;1.00;;;18.60;48.50;;;;;;2329381;53;20963;-67
2021/05/04 12:04:59;;;;;;;2.53;0.98;;;18.60;48.90;;;;;;2296193;55;21474;-68
2021/05/04 12:07:46;;;;;;;3.08;0.90;;;18.60;49.70;;;;;;2521124;53;20965;-65
2021/05/04 12:10:25;;;;;;;2.33;1.15;;;18.60;48.60;;;;;;2348215;53;21016;-65
2021/05/04 12:13:04;;;;;;;1.92;0.88;;;18.60;49.40;;;;;;2342574;53;21000;-69
2021/05/04 12:15:32;;;;;;;3.42;1.10;;;18.50;49.30;;;;;;2329183;54;20994;-69
2021/05/04 12:18:16;;;;;;;2.92;1.00;;;18.50;49.90;;;;;;2326568;53;21020;-69
2021/05/04 12:21:11;;;;;;;2.55;1.15;;;18.40;49.20;;;;;;2400854;53;20958;-68
2021/05/04 12:23:41;;;;;;;2.80;1.40;;;18.40;48.30;;;;;;2370217;53;20962;-66
2021/05/04 12:26:10;;;;;;;2.28;1.17;;;18.40;50.00;;;;;;2624140;52;20994;-68
2021/05/04 12:28:55;;;;;;;3.37;1.35;;;18.40;50.40;;;;;;2618000;52;20965;-69
2021/05/04 12:31:32;;;;;;;3.33;1.67;;;18.40;49.70;;;;;;2367094;53;20993;-66
2021/05/04 12:33:59;;;;;;;3.55;1.60;;;18.40;50.10;;;;;;2346420;54;20942;-67
2021/05/04 12:36:41;;;;;;;3.67;1.60;;;18.40;50.90;;;;;;2552652;52;20968;-67
2021/05/04 12:39:29;;;;;;;2.85;1.42;;;18.40;50.20;;;;;;2348155;53;20925;-69
2021/05/04 12:42:01;;;;;;;3.17;1.65;;;18.40;50.30;;;;;;2624450;52;20942;-69
2021/05/04 12:44:28;;;;;;;3.05;1.17;;;18.40;50.70;;;;;;2371912;53;21395;-66
2021/05/04 12:46:55;;;;;;;4.40;1.35;;;18.40;51.10;;;;;;2367330;53;20901;-68
2021/05/04 12:49:33;;;;;;;3.15;1.55;;;18.40;51.20;;;;;;2372121;53;21728;-70
2021/05/04 12:52:05;;;;;;;3.17;1.40;;;18.40;50.00;;;;;;2618174;52;21005;-70
2021/05/04 12:54:34;;;;;;;2.40;1.10;;;18.30;50.90;;;;;;2349745;54;20962;-69
2021/05/04 12:57:12;;;;;;;3.20;1.20;;;18.30;50.80;;;;;;2333838;54;21025;-67
2021/05/04 12:59:38;;;;;;;2.92;1.25;;;18.30;51.90;;;;;;2370079;53;20998;-65
2021/05/04 13:02:05;;;;;;;4.07;1.30;;;18.30;51.40;;;;;;2362683;53;20975;-69
2021/05/04 13:04:49;;;;;;;3.78;1.37;;;18.20;51.30;;;;;;2353703;53;20942;-67
2021/05/04 13:11:36;;;;;;;2.47;1.20;;;18.20;49.80;;;;;;2614670;52;20969;-66
2021/05/04 13:14:19;;;;;;;2.83;1.08;;;18.20;50.20;;;;;;2334947;54;20957;-66
2021/05/04 13:30:39;;;;;;;2.30;1.10;;;18.00;52.40;;;;;;2343741;54;20935;-68
2021/05/04 13:33:07;;;;;;;2.42;1.20;;;18.00;52.10;;;;;;2582241;52;20995;-69
2021/05/04 13:39:59;;;;;;;2.17;1.00;;;18.00;51.30;;;;;;2595401;52;21007;-66
2021/05/04 13:49:07;;;;;;;2.55;1.10;;;18.00;52.90;;;;;;2347167;53;21000;-68
2021/05/04 13:51:33;;;;;;;2.70;1.10;;;18.00;51.90;;;;;;2340926;53;20937;-70
2021/05/04 13:53:59;;;;;;;2.45;1.02;;;18.00;53.20;;;;;;2344944;53;21011;-66
2021/05/04 13:56:25;;;;;;;2.95;1.20;;;18.00;53.20;;;;;;2336840;53;20945;-69
2021/05/04 13:58:52;;;;;;;3.00;1.40;;;18.00;53.60;;;;;;2346759;53;21433;-68
2021/05/04 14:01:25;;;;;;;4.53;1.20;;;18.00;53.20;;;;;;2343383;53;20962;-67